createdAt,value
2022-11-16T00:01:42.591Z,1.95
2022-11-16T00:04:11.949Z,1.10
2022-11-16T00:06:39.462Z,3.17
2022-11-16T00:09:26.329Z,1.58
2022-11-16T00:11:56.667Z,5.85
2022-11-16T00:16:51.617Z,5.10
2022-11-16T00:19:18.538Z,2.08
2022-11-16T00:21:45.169Z,4.50
2022-11-16T00:24:15.321Z,3.33
2022-11-16T00:26:42.326Z,3.58
2022-11-16T00:29:26.057Z,2.85
2022-11-16T00:31:54.160Z,2.47
2022-11-16T00:34:22.370Z,1.92
2022-11-16T00:36:49.324Z,3.58
2022-11-16T00:39:17.272Z,3.58
2022-11-16T00:41:44.832Z,1.98
2022-11-16T00:44:11.998Z,5.38
2022-11-16T00:46:38.974Z,3.33
2022-11-16T00:49:06.173Z,3.45
2022-11-16T00:51:34.529Z,1.08
2022-11-16T00:54:01.763Z,3.90
2022-11-16T00:56:28.316Z,3.35
2022-11-16T00:58:54.873Z,2.08
2022-11-16T01:01:21.550Z,3.97
2022-11-16T01:03:48.269Z,4.00
2022-11-16T01:06:16.217Z,1.05
2022-11-16T01:08:44.690Z,3.20
2022-11-16T01:11:34.473Z,3.63
2022-11-16T01:14:05.167Z,3.72
2022-11-16T01:16:32.240Z,2.70
2022-11-16T01:18:58.878Z,2.78
2022-11-16T01:21:25.627Z,3.83
2022-11-16T01:23:52.535Z,3.35
2022-11-16T01:26:19.404Z,1.77
2022-11-16T01:28:46.140Z,8.23
2022-11-16T01:31:12.854Z,1.27
2022-11-16T01:33:39.555Z,2.85
2022-11-16T01:36:14.541Z,5.05
2022-11-16T01:38:43.524Z,2.70
2022-11-16T01:41:14.745Z,4.70
2022-11-16T01:44:00.101Z,3.75
2022-11-16T01:46:27.841Z,13.38
2022-11-16T01:49:04.155Z,2.35
2022-11-16T01:51:33.054Z,6.20
2022-11-16T01:54:02.701Z,2.67
2022-11-16T01:56:32.551Z,1.38
2022-11-16T01:58:59.350Z,4.10
2022-11-16T02:01:25.971Z,2.22
2022-11-16T02:03:52.554Z,7.15
2022-11-16T02:09:49.564Z,2.13
2022-11-16T02:20:59.092Z,1.75
2022-11-16T02:32:12.142Z,2.60
2022-11-16T02:34:45.222Z,5.68
2022-11-16T02:37:17.593Z,2.13
2022-11-16T02:39:47.658Z,2.83
2022-11-16T02:42:22.153Z,4.30
2022-11-16T02:44:51.648Z,4.97
2022-11-16T02:47:23.079Z,2.15
2022-11-16T02:49:56.333Z,4.05
2022-11-16T02:52:23.773Z,3.88
2022-11-16T02:54:50.343Z,2.60
2022-11-16T02:59:57.484Z,6.15
2022-11-16T03:02:51.338Z,2.13
2022-11-16T03:05:32.028Z,0.70
2022-11-16T03:11:09.259Z,1.40
2022-11-16T03:13:37.524Z,1.48
2022-11-16T03:16:11.744Z,3.75
2022-11-16T03:18:40.689Z,2.97
2022-11-16T03:24:20.644Z,2.33
2022-11-16T03:29:32.789Z,2.92
2022-11-16T03:32:10.692Z,4.35
2022-11-16T03:34:38.864Z,2.78
2022-11-16T03:37:06.457Z,2.75
2022-11-16T03:39:37.788Z,2.47
2022-11-16T03:42:09.425Z,3.00
2022-11-16T03:44:37.124Z,3.90
2022-11-16T03:47:03.693Z,1.52
2022-11-16T03:49:31.457Z,3.45
2022-11-16T03:51:58.846Z,3.47
2022-11-16T03:54:25.456Z,0.47
2022-11-16T03:56:51.993Z,4.13
2022-11-16T03:59:18.536Z,3.03
2022-11-16T04:01:45.178Z,3.30
2022-11-16T04:04:31.926Z,2.92
2022-11-16T04:07:18.500Z,2.50
2022-11-16T04:10:04.975Z,6.28
2022-11-16T04:12:51.810Z,4.40
2022-11-16T04:15:38.275Z,4.60
2022-11-16T04:18:25.015Z,7.13
2022-11-16T04:21:11.832Z,4.88
2022-11-16T04:23:58.303Z,6.70
2022-11-16T04:26:45.136Z,5.80
2022-11-16T04:29:13.693Z,2.88
2022-11-16T04:32:00.190Z,2.75
2022-11-16T04:34:46.693Z,3.13
2022-11-16T04:37:35.705Z,2.60
2022-11-16T04:40:02.463Z,2.13
2022-11-16T04:42:28.998Z,5.20
2022-11-16T04:45:15.478Z,2.90
2022-11-16T04:47:42.063Z,0.55
2022-11-16T04:50:09.221Z,0.70
2022-11-16T04:52:35.832Z,1.15
2022-11-16T04:55:02.431Z,1.83
2022-11-16T04:57:28.964Z,1.25
2022-11-16T04:59:55.550Z,3.45
2022-11-16T05:02:22.165Z,2.15
2022-11-16T05:04:48.885Z,4.63
2022-11-16T05:07:15.773Z,2.45
2022-11-16T05:09:44.936Z,2.58
2022-11-16T05:12:14.883Z,2.72
2022-11-16T05:14:42.841Z,0.32
2022-11-16T05:17:09.848Z,3.90
2022-11-16T05:19:56.376Z,0.77
2022-11-16T05:22:23.496Z,1.02
2022-11-16T05:24:50.276Z,2.60
2022-11-16T05:27:18.160Z,1.98
2022-11-16T05:29:45.625Z,0.40
2022-11-16T05:32:13.459Z,1.95
2022-11-16T05:34:40.202Z,0.73
2022-11-16T05:37:07.371Z,3.25
2022-11-16T05:39:33.999Z,1.00
2022-11-16T05:42:01.005Z,0.65
2022-11-16T05:44:27.601Z,1.77
2022-11-16T05:46:55.241Z,1.80
2022-11-16T05:49:22.309Z,5.55
2022-11-16T05:51:49.071Z,1.27
2022-11-16T05:54:21.009Z,2.72
2022-11-16T05:56:49.335Z,1.83
2022-11-16T05:59:18.636Z,1.02
2022-11-16T06:01:45.698Z,4.20
2022-11-16T06:04:13.025Z,3.13
2022-11-16T06:06:39.654Z,2.20
2022-11-16T06:09:06.678Z,2.60
2022-11-16T06:11:35.930Z,2.15
2022-11-16T06:14:02.877Z,3.08
2022-11-16T06:16:29.423Z,5.20
2022-11-16T06:18:55.958Z,2.70
2022-11-16T06:21:22.562Z,3.45
2022-11-16T06:23:49.214Z,2.55
2022-11-16T06:26:15.806Z,4.38
2022-11-16T06:28:42.509Z,5.47
2022-11-16T06:31:09.143Z,3.25
2022-11-16T06:33:35.839Z,2.78
2022-11-16T06:36:02.445Z,1.17
2022-11-16T06:38:29.331Z,2.15
2022-11-16T06:40:57.978Z,3.10
2022-11-16T06:43:26.048Z,1.13
2022-11-16T06:45:55.464Z,2.20
2022-11-16T06:48:22.723Z,1.27
2022-11-16T06:50:50.808Z,1.88
2022-11-16T06:53:18.159Z,4.28
2022-11-16T06:55:44.755Z,1.33
2022-11-16T06:58:11.317Z,1.70
2022-11-16T07:00:38.140Z,2.88
2022-11-16T07:03:04.976Z,2.00
2022-11-16T07:05:32.426Z,1.60
2022-11-16T07:07:59.074Z,1.50
2022-11-16T07:10:25.944Z,2.33
2022-11-16T07:12:52.497Z,1.92
2022-11-16T07:15:19.639Z,3.17
2022-11-16T07:17:47.011Z,3.28
2022-11-16T07:20:13.565Z,2.67
2022-11-16T07:22:40.111Z,1.10
2022-11-16T07:25:07.357Z,4.75
2022-11-16T07:27:33.939Z,5.22
2022-11-16T07:30:02.215Z,2.50
2022-11-16T07:32:31.070Z,3.40
2022-11-16T07:34:59.385Z,2.88
2022-11-16T07:37:26.252Z,5.07
2022-11-16T07:39:52.846Z,5.13
2022-11-16T07:42:19.404Z,1.75
2022-11-16T07:44:45.946Z,2.67
2022-11-16T07:47:12.535Z,3.13
2022-11-16T07:49:39.155Z,5.22
2022-11-16T07:52:09.439Z,2.03
2022-11-16T07:54:36.747Z,4.93
2022-11-16T07:57:03.386Z,5.07
2022-11-16T07:59:29.918Z,1.58
2022-11-16T08:01:56.711Z,1.10
2022-11-16T08:04:23.512Z,1.35
2022-11-16T08:06:51.790Z,1.98
2022-11-16T08:09:18.580Z,7.20
2022-11-16T08:11:45.195Z,1.50
2022-11-16T08:14:12.060Z,1.80
2022-11-16T08:16:38.779Z,5.30
2022-11-16T08:19:05.365Z,1.05
2022-11-16T08:21:31.919Z,1.98
2022-11-16T08:23:59.112Z,3.03
2022-11-16T08:26:26.099Z,3.83
2022-11-16T08:28:53.935Z,1.75
2022-11-16T08:31:24.216Z,1.08
2022-11-16T08:33:52.070Z,3.17
2022-11-16T08:36:19.253Z,1.67
2022-11-16T08:38:48.481Z,2.28
2022-11-16T08:41:15.701Z,2.65
2022-11-16T08:43:42.811Z,6.38
2022-11-16T08:46:10.513Z,4.57
2022-11-16T08:48:37.858Z,3.15
2022-11-16T08:51:22.252Z,5.18
2022-11-16T08:53:49.794Z,5.57
2022-11-16T08:56:18.596Z,3.85
2022-11-16T08:58:47.430Z,5.35
2022-11-16T09:01:17.221Z,2.75
2022-11-16T09:03:44.953Z,4.68
2022-11-16T09:06:12.755Z,7.07
2022-11-16T09:08:41.944Z,4.55
2022-11-16T09:11:11.635Z,2.85
2022-11-16T09:13:38.589Z,5.80
2022-11-16T09:16:05.594Z,6.13
2022-11-16T09:18:32.926Z,4.30
2022-11-16T09:20:59.657Z,4.15
2022-11-16T09:23:26.342Z,4.78
2022-11-16T09:25:54.551Z,4.30
2022-11-16T09:28:22.159Z,3.15
2022-11-16T09:30:51.016Z,0.85
2022-11-16T09:33:17.793Z,2.42
2022-11-16T09:35:44.487Z,3.83
2022-11-16T09:38:14.865Z,3.65
2022-11-16T09:40:47.869Z,3.63
2022-11-16T09:43:44.151Z,2.05
2022-11-16T09:46:35.817Z,2.92
2022-11-16T09:49:17.385Z,1.90
2022-11-16T09:51:49.092Z,2.83
2022-11-16T09:54:21.289Z,5.90
2022-11-16T09:56:51.720Z,2.42
2022-11-16T09:59:24.770Z,3.45
2022-11-16T10:02:16.511Z,4.57
2022-11-16T10:05:10.610Z,2.83
2022-11-16T10:07:44.762Z,2.47
2022-11-16T10:10:16.980Z,1.83
2022-11-16T10:21:37.913Z,0.93
2022-11-16T10:29:50.688Z,2.50
2022-11-16T10:32:57.070Z,3.22
2022-11-16T10:38:04.196Z,0.98
2022-11-16T10:40:38.950Z,2.45
2022-11-16T10:43:24.603Z,4.43
2022-11-16T10:46:00.476Z,1.60
2022-11-16T10:51:24.226Z,1.75
2022-11-16T10:53:53.055Z,1.30
2022-11-16T10:56:27.500Z,2.05
2022-11-16T11:06:59.750Z,2.40
2022-11-16T11:09:36.851Z,4.13
2022-11-16T11:12:34.447Z,3.70
2022-11-16T11:17:47.828Z,2.80
2022-11-16T11:25:54.105Z,1.02
2022-11-16T11:33:48.672Z,0.35
2022-11-16T11:36:20.563Z,0.90
2022-11-16T11:44:58.786Z,0.35
2022-11-16T11:55:36.245Z,0.57
2022-11-16T11:58:04.650Z,1.38
2022-11-16T12:00:58.150Z,0.70
2022-11-16T12:06:22.559Z,0.40
2022-11-16T12:19:49.781Z,1.55
2022-11-16T12:30:24.166Z,0.77
2022-11-16T12:33:30.574Z,4.50
2022-11-16T13:00:14.794Z,1.38
2022-11-16T13:05:58.416Z,1.50
2022-11-16T13:08:43.531Z,2.30
2022-11-16T13:11:19.728Z,0.32
2022-11-16T13:13:53.635Z,0.88
2022-11-16T13:16:21.996Z,0.60
2022-11-16T13:18:48.689Z,0.60
2022-11-16T13:24:04.735Z,0.85
2022-11-16T13:26:55.230Z,1.05
2022-11-16T13:29:48.234Z,2.15
2022-11-16T13:32:42.784Z,1.92
2022-11-16T13:35:15.819Z,2.05
2022-11-16T13:40:25.344Z,1.08
2022-11-16T13:48:28.355Z,3.28
2022-11-16T13:50:58.519Z,1.67
2022-11-16T13:56:16.048Z,1.40
2022-11-16T13:58:48.056Z,1.48
2022-11-16T14:01:15.797Z,2.15
2022-11-16T14:09:00.159Z,3.97
2022-11-16T14:11:42.943Z,3.25
2022-11-16T14:14:13.545Z,2.72
2022-11-16T14:25:06.734Z,3.40
2022-11-16T14:27:50.597Z,3.67
2022-11-16T14:30:22.815Z,1.73
2022-11-16T14:32:52.718Z,3.00
2022-11-16T14:35:40.002Z,2.33
2022-11-16T14:38:17.937Z,2.60
2022-11-16T14:40:47.336Z,3.28
2022-11-16T14:43:20.598Z,1.88
2022-11-16T14:45:53.385Z,1.15
2022-11-16T14:48:22.242Z,3.25
2022-11-16T14:51:03.633Z,2.28
2022-11-16T14:53:32.208Z,1.30
2022-11-16T14:56:10.869Z,3.65
2022-11-16T14:58:38.363Z,2.40
2022-11-16T15:01:12.769Z,0.50
2022-11-16T15:03:48.493Z,3.08
2022-11-16T15:06:16.202Z,1.83
2022-11-16T15:08:48.632Z,5.40
2022-11-16T15:11:47.154Z,2.83
2022-11-16T15:14:18.745Z,1.25
2022-11-16T15:16:51.790Z,2.58
2022-11-16T15:19:19.023Z,2.03
2022-11-16T15:21:55.820Z,2.80
2022-11-16T15:24:30.368Z,2.67
2022-11-16T15:27:09.566Z,0.73
2022-11-16T15:29:36.788Z,2.42
2022-11-16T15:32:03.685Z,4.68
2022-11-16T15:34:31.278Z,2.00
2022-11-16T15:36:57.817Z,2.65
2022-11-16T15:39:31.998Z,2.35
2022-11-16T15:42:03.478Z,1.55
2022-11-16T15:44:31.076Z,2.80
2022-11-16T15:46:58.950Z,1.50
2022-11-16T15:52:02.114Z,2.10
2022-11-16T15:54:51.083Z,2.90
2022-11-16T15:57:19.237Z,2.08
2022-11-16T15:59:51.803Z,4.13
2022-11-16T16:02:20.525Z,6.03
2022-11-16T16:04:47.286Z,3.58
2022-11-16T16:07:36.033Z,3.13
2022-11-16T16:12:57.359Z,2.80
2022-11-16T16:18:01.823Z,1.70
2022-11-16T16:20:31.116Z,1.13
2022-11-16T16:23:07.739Z,3.70
2022-11-16T16:28:01.971Z,1.98
2022-11-16T16:30:30.053Z,3.65
2022-11-16T16:32:56.718Z,5.55
2022-11-16T16:35:25.285Z,2.95
2022-11-16T16:37:57.543Z,2.83
2022-11-16T16:40:24.279Z,3.53
2022-11-16T16:42:51.238Z,4.50
2022-11-16T16:45:21.597Z,3.33
2022-11-16T16:47:48.244Z,3.63
2022-11-16T16:50:14.960Z,5.47
2022-11-16T16:52:41.509Z,4.03
2022-11-16T16:55:08.469Z,6.22
2022-11-16T16:57:35.031Z,3.13
2022-11-16T17:00:01.710Z,4.50
2022-11-16T17:02:28.382Z,5.15
2022-11-16T17:04:55.077Z,3.75
2022-11-16T17:07:21.659Z,5.30
2022-11-16T17:09:48.339Z,2.55
2022-11-16T17:12:14.862Z,3.92
2022-11-16T17:14:41.401Z,4.10
2022-11-16T17:17:07.952Z,6.22
2022-11-16T17:19:34.532Z,7.13
2022-11-16T17:22:01.076Z,4.55
2022-11-16T17:24:27.596Z,1.83
2022-11-16T17:26:54.145Z,5.80
2022-11-16T17:29:20.671Z,4.45
2022-11-16T17:31:47.713Z,5.90
2022-11-16T17:34:14.611Z,3.58
2022-11-16T17:36:42.206Z,6.75
2022-11-16T17:39:09.060Z,5.40
2022-11-16T17:41:35.645Z,5.15
2022-11-16T17:44:02.436Z,6.10
2022-11-16T17:46:29.198Z,8.15
2022-11-16T17:48:56.446Z,5.55
2022-11-16T17:51:25.054Z,4.13
2022-11-16T17:53:52.193Z,3.75
2022-11-16T17:56:21.678Z,6.25
2022-11-16T17:58:50.333Z,4.90
2022-11-16T18:01:17.080Z,5.82
2022-11-16T18:03:43.651Z,6.90
2022-11-16T18:06:13.630Z,7.07
2022-11-16T18:08:41.424Z,4.38
2022-11-16T18:11:10.999Z,7.28
2022-11-16T18:13:38.418Z,4.53
2022-11-16T18:16:08.177Z,5.45
2022-11-16T18:18:35.113Z,6.70
2022-11-16T18:21:02.301Z,5.55
2022-11-16T18:23:31.044Z,7.18
2022-11-16T18:25:57.697Z,4.07
2022-11-16T18:28:24.277Z,6.60
2022-11-16T18:30:51.397Z,5.22
2022-11-16T18:33:18.581Z,6.93
2022-11-16T18:35:45.116Z,7.95
2022-11-16T18:38:13.169Z,10.02
2022-11-16T18:40:40.867Z,4.88
2022-11-16T18:43:13.090Z,6.05
2022-11-16T18:45:39.663Z,10.80
2022-11-16T18:48:06.306Z,3.90
2022-11-16T18:50:32.950Z,10.50
2022-11-16T18:52:59.493Z,6.90
2022-11-16T18:55:26.067Z,7.15
2022-11-16T18:57:52.579Z,8.07
2022-11-16T19:00:19.516Z,8.45
2022-11-16T19:02:46.056Z,7.65
2022-11-16T19:05:12.702Z,6.72
2022-11-16T19:07:39.312Z,9.15
2022-11-16T19:10:07.602Z,12.85
2022-11-16T19:12:34.135Z,7.63
2022-11-16T19:15:00.687Z,8.05
2022-11-16T19:17:27.612Z,6.72
2022-11-16T19:19:54.264Z,6.53
2022-11-16T19:22:20.904Z,6.47
2022-11-16T19:24:47.497Z,7.60
2022-11-16T19:27:14.061Z,10.55
2022-11-16T19:29:41.217Z,5.38
2022-11-16T19:32:07.807Z,5.38
2022-11-16T19:34:34.332Z,8.27
2022-11-16T19:37:01.072Z,9.10
2022-11-16T19:39:27.629Z,8.20
2022-11-16T19:41:54.167Z,11.43
2022-11-16T19:44:20.745Z,10.35
2022-11-16T19:46:47.395Z,4.50
2022-11-16T19:49:19.987Z,13.60
2022-11-16T19:51:46.908Z,6.70
2022-11-16T19:54:14.896Z,7.95
2022-11-16T19:56:42.807Z,6.95
2022-11-16T19:59:10.052Z,5.18
2022-11-16T20:01:36.649Z,11.05
2022-11-16T20:04:03.702Z,6.82
2022-11-16T20:09:09.594Z,7.13
2022-11-16T20:14:06.010Z,7.20
2022-11-16T20:16:38.674Z,11.13
2022-11-16T20:19:08.704Z,10.00
2022-11-16T20:21:39.760Z,10.25
2022-11-16T20:24:09.024Z,7.60
2022-11-16T20:26:37.258Z,8.73
2022-11-16T20:29:03.938Z,5.25
2022-11-16T20:31:32.683Z,8.82
2022-11-16T20:34:01.599Z,14.48
2022-11-16T20:36:30.098Z,7.88
2022-11-16T20:38:57.539Z,17.85
2022-11-16T20:41:26.091Z,10.63
2022-11-16T20:43:54.471Z,6.05
2022-11-16T20:46:26.160Z,9.18
2022-11-16T20:48:52.974Z,5.72
2022-11-16T20:51:20.621Z,11.13
2022-11-16T20:53:48.480Z,7.32
2022-11-16T20:56:16.581Z,9.00
2022-11-16T20:58:43.432Z,7.70
2022-11-16T21:01:14.205Z,8.30
2022-11-16T21:03:42.489Z,7.72
2022-11-16T21:06:09.017Z,8.18
2022-11-16T21:08:37.253Z,6.97
2022-11-16T21:11:14.522Z,7.85
2022-11-16T21:14:01.293Z,8.05
2022-11-16T21:16:27.883Z,10.32
2022-11-16T21:18:55.607Z,11.18
2022-11-16T21:21:22.265Z,5.25
2022-11-16T21:23:52.375Z,11.98
2022-11-16T21:26:21.620Z,13.07
2022-11-16T21:28:48.229Z,10.52
2022-11-16T21:31:18.215Z,4.70
2022-11-16T21:33:45.693Z,4.93
2022-11-16T21:36:15.121Z,7.75
2022-11-16T21:38:42.126Z,7.25
2022-11-16T21:41:10.873Z,7.72
2022-11-16T21:43:40.292Z,4.63
2022-11-16T21:46:11.568Z,6.53
2022-11-16T21:48:38.624Z,4.32
2022-11-16T21:51:07.267Z,12.73
2022-11-16T21:53:34.692Z,8.18
2022-11-16T21:56:02.107Z,8.20
2022-11-16T21:58:28.838Z,6.10
2022-11-16T22:00:57.022Z,5.07
2022-11-16T22:03:25.686Z,4.22
2022-11-16T22:06:15.024Z,6.10
2022-11-16T22:08:42.024Z,5.68
2022-11-16T22:11:09.618Z,3.95
2022-11-16T22:13:37.376Z,9.02
2022-11-16T22:16:06.764Z,4.70
2022-11-16T22:18:33.635Z,6.30
2022-11-16T22:21:01.084Z,6.18
2022-11-16T22:23:27.850Z,5.95
2022-11-16T22:25:54.686Z,6.53
2022-11-16T22:28:21.704Z,2.67
2022-11-16T22:30:51.647Z,3.40
2022-11-16T22:33:18.651Z,5.32
2022-11-16T22:35:47.012Z,4.32
2022-11-16T22:38:13.539Z,3.38
2022-11-16T22:40:40.049Z,3.53
2022-11-16T22:43:06.577Z,3.65
2022-11-16T22:45:33.089Z,3.45
2022-11-16T22:47:59.657Z,2.05
2022-11-16T22:50:26.216Z,3.17
2022-11-16T22:52:52.794Z,5.00
2022-11-16T22:55:19.358Z,2.83
2022-11-16T22:57:45.903Z,2.47
2022-11-16T23:00:13.664Z,4.47
2022-11-16T23:02:40.353Z,3.92
2022-11-16T23:05:07.228Z,2.65
2022-11-16T23:07:33.930Z,4.32
2022-11-16T23:10:00.696Z,3.33
2022-11-16T23:12:47.160Z,3.08
2022-11-16T23:15:34.112Z,2.47
2022-11-16T23:18:00.681Z,5.03
2022-11-16T23:20:47.166Z,5.22
2022-11-16T23:23:39.591Z,4.18
2022-11-16T23:26:34.350Z,3.03
2022-11-16T23:29:02.829Z,2.70
2022-11-16T23:31:29.396Z,1.83
2022-11-16T23:33:55.941Z,1.70
2022-11-16T23:36:22.477Z,1.55
2022-11-16T23:38:49.113Z,1.75
2022-11-16T23:41:35.564Z,1.95
2022-11-16T23:44:02.204Z,2.13
2022-11-16T23:46:31.338Z,1.83
2022-11-16T23:48:58.045Z,2.17
2022-11-16T23:51:25.372Z,1.88
2022-11-16T23:53:52.889Z,2.30
2022-11-16T23:56:21.022Z,4.25
2022-11-16T23:58:48.253Z,2.92
